Progreso, Mexico

6:52 PM EST on September 03, 2015 (GMT -0500)
INSTITUTO TECNOLOGICO SUPERIOR DE PROGRESO | | Change Station
CLOSE
Current Station
Personal Weather Station
Location: Progreso, YUCATáN
Elevation: 7 ft
Nearby Weather Stations

Elev 7 ft 21.28 °N, 89.65 °W | Updated 2 minutes ago

Light Thunderstorms and Rain
Light Thunderstorm Rain
81.9 °F
Feels Like 91 °F
N
13.0
Wind Variable Wind from ENE
Gusts 16.0 mph

Today
High -- | Low -- °F
--% Chance of Precip.
Yesterday
High -- | Low -- °F
Precip. -- in
6:42 AM 7:13 PM
Waning Gibbous, 65% visible
Pressure 29.86 in
Visibility 6.0 miles
Clouds Mostly Cloudy 2500 ft
Mostly Cloudy 25000 ft
Heat Index 91 °F
Dew Point 78 °F
Humidity 88%
Rainfall 0.12 in
Snow Depth Not available.
UV 0.0 out of 12
Pollen Not available.
Air Quality Not available.
Flu Activity Not available.
METAR MMMD 032343Z 13017G29KT 6SM -TSRA BKN025CB BKN250 29/20 A2985 RMK SLP111 56007 952 8/903 -RAB40
Pressure 29.86 in
Visibility 6.0 miles
Clouds Mostly Cloudy 2500 ft
Mostly Cloudy 25000 ft
Heat Index 91 °F
Dew Point 78 °F
Humidity 88%
Rainfall 0.12 in
Snow Depth Not available.
UV 0.0 out of 12
Pollen Not available.
Air Quality Not available.
Flu Activity Not available.
METAR MMMD 032343Z 13017G29KT 6SM -TSRA BKN025CB BKN250 29/20 A2985 RMK SLP111 56007 952 8/903 -RAB40

10-Day Weather Forecast

×

Almanac

Astronomy

Sep. 03, 2015 Rise Set
Actual Time
Civil Twilight
Nautical Twilight
Astronomical Twilight
Moon
Length of Visible Light
Length of Day
Tomorrow will be .
, % of the Moon is Illuminated

Today's Extremes

Country Highs Country Lows

Community

WunderPhotos

Upload Photos

1,852,063 photos uploaded!

WunderBlogs® & News

Nearby

Air Quality

  Air Quality AQ Index Pollutant
Not available.

Snow Depth

Station Depth Elevation

Earthquake Activity

City Distance Mag. Time & Date
Minimum magnitude displayed is 2.5.

Coastal Water Temperatures

Place Temperature

Stations

Nearby Weather Stations

Station Location Temp. Windchill Dew Point Humidity Wind Precip. Elev Updated Type